createdAt,value
2023-05-12T00:05:26.919Z,965.16
2023-05-12T00:20:28.642Z,965.16
2023-05-12T00:35:30.357Z,965.24
2023-05-12T00:50:32.059Z,965.25
2023-05-12T01:05:33.731Z,965.21
2023-05-12T01:20:35.425Z,965.22
2023-05-12T01:35:37.132Z,965.33
2023-05-12T01:50:38.883Z,965.41
2023-05-12T02:05:40.599Z,965.57
2023-05-12T02:20:42.294Z,965.75
2023-05-12T02:35:44.006Z,965.78
2023-05-12T02:50:45.758Z,966.04
2023-05-12T03:05:47.482Z,966.22
2023-05-12T03:20:49.225Z,966.52
2023-05-12T03:35:50.975Z,966.71
2023-05-12T03:50:52.697Z,967.01
2023-05-12T04:05:54.392Z,967.33
2023-05-12T04:20:56.105Z,967.63
2023-05-12T04:35:57.827Z,967.83
2023-05-12T04:50:59.534Z,968.11
2023-05-12T05:06:01.230Z,968.38
2023-05-12T05:21:02.999Z,968.52
2023-05-12T05:36:04.711Z,968.63
2023-05-12T05:51:06.387Z,968.78
2023-05-12T06:06:08.110Z,968.97
2023-05-12T06:21:09.876Z,969.16
2023-05-12T06:36:11.680Z,969.31
2023-05-12T06:51:13.394Z,969.61
2023-05-12T07:06:15.087Z,969.82
2023-05-12T07:21:16.806Z,970
2023-05-12T07:36:19.687Z,970.11
2023-05-12T07:51:22.360Z,970.26
2023-05-12T08:06:25.038Z,970.42
2023-05-12T08:21:26.843Z,970.57
2023-05-12T08:36:28.582Z,970.83
2023-05-12T08:51:30.342Z,970.97
2023-05-12T09:06:32.050Z,971.15
2023-05-12T09:21:33.751Z,971.36
2023-05-12T09:36:35.404Z,971.55
2023-05-12T09:51:37.134Z,971.71
2023-05-12T10:06:38.825Z,971.98
2023-05-12T10:21:40.529Z,972.15
2023-05-12T10:36:42.249Z,972.35
2023-05-12T10:51:43.986Z,972.44
2023-05-12T11:06:47.119Z,972.57
2023-05-12T11:21:49.078Z,972.71
2023-05-12T11:36:50.765Z,972.81
2023-05-12T11:51:52.453Z,972.98
2023-05-12T12:06:54.148Z,973.11
2023-05-12T12:21:55.904Z,973.37
2023-05-12T12:36:57.639Z,973.48
2023-05-12T12:51:59.361Z,973.66
2023-05-12T13:07:01.088Z,973.84
2023-05-12T13:22:02.802Z,973.99
2023-05-12T13:37:04.496Z,974.13
2023-05-12T13:52:06.219Z,974.22
2023-05-12T14:07:08.782Z,974.35
2023-05-12T14:22:22.351Z,974.56
2023-05-12T14:37:27.646Z,974.57
2023-05-12T14:52:29.429Z,974.46
2023-05-12T15:07:31.120Z,974.54
2023-05-12T15:22:32.837Z,974.45
2023-05-12T15:37:34.536Z,974.43
2023-05-12T15:52:36.300Z,974.47
2023-05-12T16:07:38.062Z,974.57
2023-05-12T16:22:39.758Z,974.44
2023-05-12T16:37:41.549Z,974.24
2023-05-12T16:52:43.251Z,974.23
2023-05-12T17:07:45.023Z,974.03
2023-05-12T17:22:46.753Z,974
2023-05-12T17:37:48.477Z,973.99
2023-05-12T17:52:50.214Z,973.91
2023-05-12T18:07:51.898Z,973.76
2023-05-12T18:22:53.579Z,973.55
2023-05-12T18:37:55.258Z,973.43
2023-05-12T18:52:56.941Z,973.27
2023-05-12T19:07:58.620Z,973.14
2023-05-12T19:23:00.310Z,972.98
2023-05-12T19:38:02.048Z,972.9
2023-05-12T19:53:03.763Z,972.76
2023-05-12T20:08:05.492Z,972.61
2023-05-12T20:23:07.341Z,972.44
2023-05-12T20:38:09.073Z,972.37
2023-05-12T20:53:10.762Z,972.21
2023-05-12T21:08:12.500Z,972.19
2023-05-12T21:23:14.141Z,972.13
2023-05-12T21:38:15.933Z,972
2023-05-12T21:53:17.661Z,971.81
2023-05-12T22:08:19.407Z,971.73
2023-05-12T22:23:21.172Z,971.56
2023-05-12T22:38:22.878Z,971.43
2023-05-12T22:53:24.570Z,971.34
2023-05-12T23:08:26.241Z,971.14
2023-05-12T23:23:27.940Z,971.02
2023-05-12T23:38:29.636Z,970.93
2023-05-12T23:53:31.340Z,970.84
